Time;durP1;ratioP1;P1;durP2;ratioP2;P2;SDS_P1;SDS_P2;PMS_P1;PMS_P2;Temp;Humidity;BMP_temperature;BMP_pressure;BME280_temperature;BME280_humidity;BME280_pressure;Samples;Min_cycle;Max_cycle;Signal;HPM_P1;HPM_P2
2023/07/15 00:02:33;;;;;;;4.70;2.30;;;;;;;18.78;61.66;100275.56;6053828;28;20042;-68
2023/07/15 00:05:35;;;;;;;5.97;2.07;;;;;;;18.72;62.04;100276.41;6074015;28;20472;-68
2023/07/15 00:08:31;;;;;;;5.00;2.20;;;;;;;18.68;62.39;100264.44;6064315;28;20032;-68
2023/07/15 00:11:26;;;;;;;9.32;2.20;;;;;;;18.65;62.30;100262.16;6053732;28;20026;-67
2023/07/15 00:14:23;;;;;;;4.80;2.17;;;;;;;18.63;62.31;100264.22;6062560;28;20049;-67
2023/07/15 00:17:18;;;;;;;8.73;2.45;;;;;;;18.51;62.48;100239.03;6053654;28;20028;-68
2023/07/15 00:20:19;;;;;;;6.17;2.40;;;;;;;18.50;62.48;100244.63;6069857;28;20029;-68
2023/07/15 00:23:25;;;;;;;5.18;2.20;;;;;;;18.36;62.86;100235.72;6059963;28;20030;-68
2023/07/15 00:26:21;;;;;;;;;;;;;;;18.47;62.78;100256.56;6053890;28;20036;-67
2023/07/15 00:29:16;;;;;;;7.05;2.20;;;;;;;18.36;62.74;100225.00;6053040;28;19909;-67
2023/07/15 00:32:17;;;;;;;3.70;1.70;;;;;;;18.39;62.87;100235.31;6053528;28;20037;-67
2023/07/15 00:35:19;;;;;;;4.30;2.08;;;;;;;18.35;62.57;100220.63;6065654;28;20021;-68
2023/07/15 00:38:15;;;;;;;5.93;2.25;;;;;;;18.42;62.64;100242.97;6077125;28;20033;-67
2023/07/15 00:41:21;;;;;;;6.37;2.07;;;;;;;18.32;62.86;100234.47;6076158;28;20068;-68
2023/07/15 00:44:17;;;;;;;5.07;2.30;;;;;;;18.33;62.96;100236.13;6055647;28;20030;-68
2023/07/15 00:47:40;;;;;;;5.32;2.00;;;;;;;18.28;63.23;100228.72;6052758;28;20405;-67
2023/07/15 00:50:39;;;;;;;5.05;2.10;;;;;;;18.16;63.25;100216.94;6068285;28;20057;-68
2023/07/15 00:53:34;;;;;;;6.68;2.70;;;;;;;18.17;63.40;100217.78;6050267;28;20036;-67
2023/07/15 00:56:32;;;;;;;4.67;1.83;;;;;;;18.17;63.30;100215.09;6052916;28;20034;-68
2023/07/15 00:59:29;;;;;;;4.93;1.98;;;;;;;18.15;63.48;100217.16;6051407;28;20056;-67
2023/07/15 01:02:25;;;;;;;7.18;2.22;;;;;;;18.19;63.23;100219.22;6050839;28;20041;-68
2023/07/15 01:05:20;;;;;;;4.63;2.42;;;;;;;18.12;63.04;100198.78;6071802;28;20528;-67
2023/07/15 01:08:15;;;;;;;6.00;2.30;;;;;;;18.10;63.13;100203.53;6075999;28;20025;-67
2023/07/15 01:11:11;;;;;;;5.70;2.10;;;;;;;18.14;63.15;100207.44;6061078;28;20037;-68
2023/07/15 01:14:09;;;;;;;4.95;1.83;;;;;;;17.99;63.19;100196.13;6055505;28;20473;-67
2023/07/15 01:17:05;;;;;;;4.72;2.20;;;;;;;18.12;63.39;100207.66;6051813;28;20026;-68
2023/07/15 01:20:01;;;;;;;5.13;2.10;;;;;;;18.06;63.09;100191.56;6052380;28;20029;-68
2023/07/15 01:22:56;;;;;;;4.80;2.70;;;;;;;18.13;62.98;100203.09;6051895;28;20030;-67
2023/07/15 01:25:51;;;;;;;3.57;1.93;;;;;;;18.13;62.88;100201.25;6051559;28;20498;-68
2023/07/15 01:28:47;;;;;;;6.60;2.03;;;;;;;18.08;62.48;100184.13;6052063;28;20022;-68
2023/07/15 01:31:42;;;;;;;5.35;2.05;;;;;;;18.08;62.61;100189.47;6051680;28;20080;-67
2023/07/15 01:34:38;;;;;;;6.40;2.50;;;;;;;17.99;62.80;100174.66;6050605;28;20030;-68
2023/07/15 01:37:33;;;;;;;5.43;2.30;;;;;;;17.97;62.75;100165.94;6054382;28;20044;-68
2023/07/15 01:40:29;;;;;;;7.00;2.17;;;;;;;17.99;63.03;100180.00;6051801;28;20265;-66
2023/07/15 01:43:24;;;;;;;5.43;2.40;;;;;;;18.04;62.78;100182.91;6051011;28;20034;-66
2023/07/15 01:46:19;;;;;;;5.67;1.80;;;;;;;17.87;63.09;100176.28;6051282;28;20348;-66
2023/07/15 01:49:14;;;;;;;5.77;2.13;;;;;;;17.94;63.37;100185.19;6051725;28;20022;-67
2023/07/15 01:52:10;;;;;;;6.40;2.30;;;;;;;17.87;63.61;100173.59;6051309;28;20640;-68
2023/07/15 01:55:05;;;;;;;5.13;2.20;;;;;;;17.76;63.75;100156.28;6050821;28;20740;-68
2023/07/15 01:58:01;;;;;;;4.80;2.20;;;;;;;17.73;64.12;100159.38;6051262;28;20288;-68
2023/07/15 02:00:56;;;;;;;5.18;1.92;;;;;;;17.79;64.24;100170.09;6050827;28;20030;-66
2023/07/15 02:03:52;;;;;;;5.60;2.20;;;;;;;17.63;64.43;100156.28;6059082;28;20457;-66
2023/07/15 02:06:47;;;;;;;5.43;2.30;;;;;;;17.57;65.01;100149.88;6074378;28;20108;-67
2023/07/15 02:09:42;;;;;;;5.00;2.20;;;;;;;17.57;65.03;100149.03;6074739;28;20029;-66
2023/07/15 02:12:38;;;;;;;6.63;2.30;;;;;;;17.56;65.28;100164.28;6074737;28;20469;-66
2023/07/15 02:15:33;;;;;;;6.17;2.63;;;;;;;17.47;65.53;100154.78;6057691;28;20057;-66
2023/07/15 02:18:28;;;;;;;6.47;2.40;;;;;;;17.45;65.95;100162.19;6050809;28;20369;-66
2023/07/15 02:21:25;;;;;;;7.33;2.50;;;;;;;17.32;66.62;100148.75;6052427;28;20667;-66
2023/07/15 02:24:20;;;;;;;9.13;2.80;;;;;;;17.26;67.02;100152.25;6050252;28;20493;-66
2023/07/15 02:27:16;;;;;;;7.40;2.20;;;;;;;17.17;67.59;100145.44;6050662;28;20038;-67
2023/07/15 02:30:11;;;;;;;6.28;2.45;;;;;;;17.13;68.14;100153.06;6050714;28;20034;-67
2023/07/15 02:33:07;;;;;;;10.07;2.80;;;;;;;17.07;68.51;100142.31;6050552;28;20025;-66
2023/07/15 02:36:04;;;;;;;5.22;2.30;;;;;;;16.97;68.09;100121.28;6056012;28;20387;-66
2023/07/15 02:39:00;;;;;;;6.43;2.55;;;;;;;17.08;68.25;100133.25;6074351;28;20029;-66
2023/07/15 02:41:55;;;;;;;5.37;2.43;;;;;;;17.06;67.97;100135.31;6071862;28;20037;-66
2023/07/15 02:44:50;;;;;;;7.07;2.55;;;;;;;17.10;68.02;100136.53;6049833;28;20440;-66
2023/07/15 02:47:46;;;;;;;7.13;2.17;;;;;;;17.02;68.13;100120.66;6050304;28;20030;-66
2023/07/15 02:50:41;;;;;;;7.30;2.37;;;;;;;17.06;67.76;100125.44;6050032;28;20026;-65
2023/07/15 02:53:39;;;;;;;8.63;2.93;;;;;;;17.05;68.26;100122.94;6049636;28;20271;-66
2023/07/15 02:56:35;;;;;;;4.95;2.25;;;;;;;16.97;68.86;100109.72;6049606;28;20327;-66
2023/07/15 02:59:33;;;;;;;5.60;2.28;;;;;;;16.82;69.35;100095.69;6050249;28;20022;-66
2023/07/15 03:02:28;;;;;;;4.95;2.20;;;;;;;16.88;69.18;100118.97;6049768;28;20030;-68
2023/07/15 03:05:24;;;;;;;6.07;2.33;;;;;;;16.75;69.38;100101.00;6054340;28;20049;-67
2023/07/15 03:12:20;;;;;;;4.97;2.33;;;;;;;16.76;69.34;100107.19;6057269;28;20120;-67
2023/07/15 03:15:15;;;;;;;4.93;2.38;;;;;;;16.77;69.06;100098.16;6052358;28;20416;-67
2023/07/15 03:18:11;;;;;;;6.90;2.83;;;;;;;16.90;69.16;100119.59;6049945;28;20029;-68
2023/07/15 03:21:06;;;;;;;7.17;2.90;;;;;;;16.82;69.04;100095.69;6049720;28;20034;-68
2023/07/15 03:24:02;;;;;;;8.03;2.97;;;;;;;16.97;68.06;100101.69;6055892;28;20033;-68
2023/07/15 03:26:57;;;;;;;9.05;3.03;;;;;;;17.08;67.58;100106.47;6050072;28;20272;-68
2023/07/15 03:29:54;;;;;;;6.70;2.70;;;;;;;17.15;67.25;100096.56;6052780;28;20030;-68
2023/07/15 03:32:53;;;;;;;6.85;2.78;;;;;;;17.10;66.72;100091.00;6053702;28;20473;-67
2023/07/15 03:35:48;;;;;;;7.63;2.40;;;;;;;17.16;66.02;100084.81;6049015;28;20026;-67
2023/07/15 03:38:43;;;;;;;7.10;2.47;;;;;;;17.26;65.96;100102.16;6056096;28;20022;-67
2023/07/15 03:41:39;;;;;;;6.37;2.53;;;;;;;17.25;65.37;100086.28;6049614;28;20037;-67
2023/07/15 03:44:35;;;;;;;6.10;2.00;;;;;;;17.35;64.84;100086.72;6060364;28;20038;-67
2023/07/15 03:47:30;;;;;;;8.70;2.17;;;;;;;17.40;64.40;100083.41;6049339;28;20261;-68
2023/07/15 03:50:25;;;;;;;5.90;2.30;;;;;;;17.42;64.21;100081.38;6055317;28;20029;-67
2023/07/15 03:53:20;;;;;;;5.90;2.30;;;;;;;17.45;64.07;100086.31;6048705;28;20285;-67
2023/07/15 03:56:16;;;;;;;4.13;2.10;;;;;;;17.52;64.02;100098.69;6062434;28;20152;-67
2023/07/15 03:59:11;;;;;;;5.33;2.70;;;;;;;17.47;64.29;100101.16;6073063;28;20059;-67
2023/07/15 04:02:06;;;;;;;6.88;2.63;;;;;;;17.45;64.42;100091.69;6072946;28;20025;-67
2023/07/15 04:05:02;;;;;;;8.50;2.97;;;;;;;17.51;64.58;100113.13;6054640;28;20040;-67
2023/07/15 04:07:58;;;;;;;8.50;2.50;;;;;;;17.47;64.82;100106.53;6056746;28;20108;-67
2023/07/15 04:10:53;;;;;;;6.57;2.40;;;;;;;17.56;64.61;100110.66;6049608;28;20029;-68
2023/07/15 04:13:48;;;;;;;6.10;2.17;;;;;;;17.61;64.60;100112.75;6055894;28;20034;-67
2023/07/15 04:16:44;;;;;;;5.33;2.50;;;;;;;17.66;64.46;100105.75;6049747;28;20273;-66
2023/07/15 04:19:39;;;;;;;5.73;2.20;;;;;;;17.71;64.22;100095.22;6061564;28;20375;-68
2023/07/15 04:22:37;;;;;;;6.17;2.13;;;;;;;17.75;63.42;100093.75;6053034;28;20279;-68
2023/07/15 04:25:32;;;;;;;4.68;1.65;;;;;;;17.81;63.09;100089.41;6070920;28;20026;-67
2023/07/15 04:28:27;;;;;;;5.83;2.30;;;;;;;17.97;63.12;100101.56;6061406;28;20132;-67
2023/07/15 04:31:23;;;;;;;7.03;2.25;;;;;;;17.97;63.19;100101.56;6077257;28;20033;-67
2023/07/15 04:34:18;;;;;;;6.00;2.40;;;;;;;18.09;62.99;100084.63;6076377;28;20487;-67
2023/07/15 04:37:13;;;;;;;5.40;2.20;;;;;;;18.45;61.96;100101.03;6060190;28;20080;-67
2023/07/15 04:40:11;;;;;;;5.77;2.10;;;;;;;18.59;61.65;100107.19;6066401;28;20029;-68
2023/07/15 04:43:06;;;;;;;4.93;2.30;;;;;;;18.60;60.71;100103.50;6076699;28;20029;-67
2023/07/15 04:46:01;;;;;;;8.93;2.57;;;;;;;18.82;60.45;100107.53;6076352;28;20067;-68
2023/07/15 04:48:57;;;;;;;8.57;2.80;;;;;;;18.78;60.57;100100.91;6068314;28;20280;-68
2023/07/15 04:51:52;;;;;;;7.40;2.90;;;;;;;18.74;61.42;100101.56;6069279;28;20029;-67
2023/07/15 04:54:48;;;;;;;7.70;2.95;;;;;;;18.59;61.59;100080.34;6068786;28;20461;-68
2023/07/15 04:57:43;;;;;;;6.27;3.07;;;;;;;18.78;61.39;100097.44;6052846;28;20430;-68
2023/07/15 05:00:38;;;;;;;10.10;3.17;;;;;;;18.58;62.19;100084.09;6052705;28;20269;-67
2023/07/15 05:03:33;;;;;;;6.47;3.00;;;;;;;18.66;62.57;100102.66;6051216;28;20929;-68
2023/07/15 05:06:29;;;;;;;8.18;2.80;;;;;;;18.78;62.36;100106.28;6052957;28;20034;-67
2023/07/15 05:09:24;;;;;;;6.28;3.03;;;;;;;19.02;61.40;100100.16;6052344;28;20029;-67
2023/07/15 05:12:20;;;;;;;8.88;2.95;;;;;;;19.53;59.84;100099.25;6052244;28;20109;-68
2023/07/15 05:15:15;;;;;;;5.57;2.80;;;;;;;19.54;60.10;100107.09;6051733;28;20318;-67
2023/07/15 05:18:11;;;;;;;8.50;3.10;;;;;;;19.63;59.19;100098.75;6051990;28;20084;-67
2023/07/15 05:21:07;;;;;;;9.73;3.03;;;;;;;20.04;58.69;100107.06;6056011;28;20290;-67
2023/07/15 05:24:02;;;;;;;8.45;2.97;;;;;;;20.25;58.68;100098.59;6075362;28;20033;-67
2023/07/15 05:26:58;;;;;;;8.05;2.95;;;;;;;20.44;58.49;100104.78;6075770;28;20026;-68
2023/07/15 05:29:53;;;;;;;7.38;3.13;;;;;;;20.62;56.98;100091.34;6062309;28;20036;-67
2023/07/15 05:32:49;;;;;;;6.50;3.10;;;;;;;21.44;55.60;100095.19;6051753;28;20045;-67
2023/07/15 05:35:44;;;;;;;11.82;3.17;;;;;;;21.48;55.28;100093.66;6051179;28;20022;-67
2023/07/15 05:38:43;;;;;;;6.90;3.40;;;;;;;21.75;54.26;100095.69;6052268;28;20026;-67
2023/07/15 05:41:38;;;;;;;9.00;2.65;;;;;;;22.71;51.79;100105.16;6055833;28;20063;-66
2023/07/15 05:44:33;;;;;;;10.17;2.63;;;;;;;23.10;50.80;100098.91;6053906;28;20030;-67
2023/07/15 05:47:29;;;;;;;6.70;2.57;;;;;;;22.37;52.87;100104.94;6054245;28;20082;-67
2023/07/15 05:50:24;;;;;;;6.47;2.50;;;;;;;21.84;54.72;100109.66;6051470;28;20034;-67
2023/07/15 05:53:20;;;;;;;8.93;2.87;;;;;;;22.52;53.71;100101.75;6063619;28;20021;-67
2023/07/15 05:56:15;;;;;;;7.45;2.35;;;;;;;22.88;51.87;100096.03;6051155;28;20081;-67
2023/07/15 05:59:11;;;;;;;5.93;2.53;;;;;;;22.99;52.12;100102.47;6055330;28;20032;-68
2023/07/15 06:02:06;;;;;;;5.23;2.10;;;;;;;23.60;50.55;100102.50;6054673;28;20034;-68
2023/07/15 06:05:01;;;;;;;8.00;2.30;;;;;;;24.76;47.80;100104.16;6054522;28;20029;-67
2023/07/15 06:07:56;;;;;;;4.83;1.93;;;;;;;25.14;46.06;100095.09;6054390;28;20077;-67
2023/07/15 06:10:52;;;;;;;3.57;1.97;;;;;;;25.04;46.22;100094.19;6055677;28;20059;-66
2023/07/15 06:13:47;;;;;;;5.13;1.97;;;;;;;25.11;45.65;100084.75;6050517;28;20030;-67
2023/07/15 06:16:42;;;;;;;6.70;2.13;;;;;;;25.20;46.29;100094.09;6053978;28;20040;-67
2023/07/15 06:19:38;;;;;;;4.03;2.08;;;;;;;25.89;44.89;100069.69;6051399;28;20284;-67
2023/07/15 06:22:33;;;;;;;3.67;2.33;;;;;;;27.00;41.41;100092.00;6052938;28;20475;-67
2023/07/15 06:25:29;;;;;;;4.17;1.93;;;;;;;26.03;43.24;100079.88;6069939;28;20036;-67
2023/07/15 06:28:26;;;;;;;4.35;2.17;;;;;;;25.49;45.81;100085.69;6063565;28;20507;-67
2023/07/15 06:31:21;;;;;;;3.95;2.03;;;;;;;25.43;44.68;100092.94;6062107;28;20113;-67
2023/07/15 06:34:16;;;;;;;3.57;1.70;;;;;;;25.19;45.88;100097.91;6069119;28;20029;-67
2023/07/15 06:37:12;;;;;;;4.87;1.90;;;;;;;25.61;44.78;100095.31;6070456;28;20083;-67
2023/07/15 06:40:07;;;;;;;4.00;2.10;;;;;;;25.69;44.42;100078.53;6062840;28;20298;-67
2023/07/15 06:43:03;;;;;;;3.33;1.70;;;;;;;26.24;43.64;100077.28;6050342;28;20369;-67
2023/07/15 06:45:58;;;;;;;4.37;1.80;;;;;;;26.80;42.18;100081.09;6050837;28;20038;-67
2023/07/15 06:48:55;;;;;;;6.33;2.10;;;;;;;26.36;42.30;100070.53;6058431;28;20287;-68
2023/07/15 06:51:50;;;;;;;4.18;1.92;;;;;;;26.73;41.66;100054.09;6042426;28;20268;-67
2023/07/15 06:54:46;;;;;;;4.87;1.60;;;;;;;26.56;41.80;100065.19;6049562;28;20033;-67
2023/07/15 06:57:41;;;;;;;3.90;1.70;;;;;;;26.80;41.15;100060.09;6050280;28;20025;-67
2023/07/15 07:00:36;;;;;;;5.43;1.90;;;;;;;27.32;41.35;100072.72;6050117;28;20469;-67
2023/07/15 07:03:32;;;;;;;4.67;1.97;;;;;;;27.60;39.92;100056.69;6049202;28;20022;-68
2023/07/15 07:06:28;;;;;;;3.58;1.90;;;;;;;28.02;39.75;100067.28;6053102;28;20027;-67
2023/07/15 07:09:23;;;;;;;7.05;1.95;;;;;;;28.67;38.60;100062.72;6069794;28;20038;-67
2023/07/15 07:12:18;;;;;;;5.40;1.90;;;;;;;27.84;39.17;100070.56;6050404;28;20441;-67
2023/07/15 07:15:14;;;;;;;4.32;2.00;;;;;;;27.71;40.19;100057.50;6048953;28;20018;-67
2023/07/15 07:18:09;;;;;;;4.75;1.75;;;;;;;27.98;40.15;100060.72;6050107;28;20466;-67
2023/07/15 07:21:05;;;;;;;2.58;1.65;;;;;;;28.77;38.64;100062.66;6049800;28;20034;-67
2023/07/15 07:24:00;;;;;;;4.90;2.05;;;;;;;28.76;37.92;100071.94;6048927;28;20030;-67
2023/07/15 07:26:55;;;;;;;6.10;2.17;;;;;;;28.26;39.14;100045.69;6050482;28;20127;-67
2023/07/15 07:29:52;;;;;;;5.00;1.87;;;;;;;27.98;39.99;100049.00;6056169;28;20034;-67
2023/07/15 07:32:48;;;;;;;7.47;1.90;;;;;;;27.94;39.61;100051.44;6053867;28;20030;-67
2023/07/15 07:35:46;;;;;;;3.20;2.00;;;;;;;27.86;39.69;100049.28;6048867;28;20440;-67
2023/07/15 07:38:43;;;;;;;2.55;1.92;;;;;;;28.19;38.69;100062.31;6049521;28;20377;-67
2023/07/15 07:41:40;;;;;;;3.00;2.10;;;;;;;28.45;39.31;100062.25;6063188;28;20384;-67
2023/07/15 07:44:35;;;;;;;4.63;1.95;;;;;;;28.87;37.82;100068.06;6072550;28;20473;-68
2023/07/15 07:47:30;;;;;;;2.77;1.60;;;;;;;28.51;38.20;100047.50;6072022;28;20030;-67
2023/07/15 07:50:27;;;;;;;5.40;1.97;;;;;;;28.17;38.46;100048.16;6052373;28;21102;-67
2023/07/15 07:53:23;;;;;;;5.40;1.80;;;;;;;28.07;39.09;100042.75;6048930;28;20473;-67
2023/07/15 07:56:18;;;;;;;2.70;1.70;;;;;;;28.64;38.28;100052.34;6049184;28;20026;-67
2023/07/15 07:59:13;;;;;;;3.65;1.88;;;;;;;28.41;38.86;100048.34;6050169;28;20033;-67
2023/07/15 08:02:09;;;;;;;4.72;2.10;;;;;;;28.87;37.54;100046.22;6053659;28;20037;-67
2023/07/15 08:05:04;;;;;;;3.60;1.87;;;;;;;28.92;38.36;100054.38;6050784;28;20034;-67
2023/07/15 08:08:00;;;;;;;4.95;1.95;;;;;;;28.39;38.60;100044.25;6055629;28;20052;-66
2023/07/15 08:10:56;;;;;;;5.27;1.90;;;;;;;28.90;37.77;100060.13;6054117;28;20484;-67
2023/07/15 08:13:53;;;;;;;3.63;1.70;;;;;;;28.86;37.55;100031.72;6053010;28;20029;-67
2023/07/15 08:16:50;;;;;;;5.40;1.77;;;;;;;28.98;37.24;100031.41;6062610;28;20030;-67
2023/07/15 08:19:45;;;;;;;4.28;2.00;;;;;;;28.78;38.06;100045.97;6053382;28;20038;-67
2023/07/15 08:22:40;;;;;;;5.00;2.33;;;;;;;28.96;37.90;100043.69;6053803;28;20054;-67
2023/07/15 08:25:37;;;;;;;3.30;1.93;;;;;;;29.20;36.92;100029.06;6057198;28;20034;-67
2023/07/15 08:28:32;;;;;;;5.05;1.75;;;;;;;29.24;37.30;100038.34;6055255;28;20026;-67
2023/07/15 08:31:28;;;;;;;4.60;1.93;;;;;;;29.41;37.02;100025.06;6053406;28;20049;-68
2023/07/15 08:34:23;;;;;;;5.13;2.40;;;;;;;30.01;35.81;100039.28;6052354;28;20350;-68
2023/07/15 08:37:19;;;;;;;3.43;1.93;;;;;;;30.23;36.13;100039.56;6053646;28;20026;-67
2023/07/15 08:40:14;;;;;;;4.40;1.90;;;;;;;30.45;35.87;100042.63;6053504;28;20264;-68
2023/07/15 08:43:09;;;;;;;3.63;2.00;;;;;;;31.04;35.15;100050.28;6071557;28;20362;-67
2023/07/15 08:46:17;;;;;;;2.63;1.63;;;;;;;30.62;35.18;100040.22;6054358;28;20268;-68
2023/07/15 08:49:13;;;;;;;3.63;1.75;;;;;;;30.43;36.00;100046.75;6051537;28;20339;-68
2023/07/15 08:52:09;;;;;;;7.00;2.10;;;;;;;30.66;35.58;100041.22;6057327;28;20369;-68
2023/07/15 08:55:06;;;;;;;3.92;1.85;;;;;;;31.20;35.10;100045.41;6051958;28;20444;-68
2023/07/15 08:58:01;;;;;;;3.83;1.92;;;;;;;30.76;34.52;100050.44;6051408;28;20031;-68
2023/07/15 09:00:56;;;;;;;5.33;2.00;;;;;;;30.30;35.77;100042.78;6051783;28;20425;-68
2023/07/15 09:03:52;;;;;;;4.70;1.73;;;;;;;30.36;35.11;100036.16;6051755;28;20268;-68
2023/07/15 09:06:47;;;;;;;6.10;2.07;;;;;;;30.63;35.21;100033.59;6052309;28;20373;-69
2023/07/15 09:09:43;;;;;;;2.88;1.80;;;;;;;30.49;35.17;100040.91;6068515;28;20312;-68
2023/07/15 09:12:43;;;;;;;3.93;1.87;;;;;;;30.50;35.33;100061.72;6061163;28;20030;-67
2023/07/15 09:15:40;;;;;;;4.30;1.83;;;;;;;30.94;34.47;100050.47;6051508;28;20284;-69
2023/07/15 09:18:40;;;;;;;3.35;1.77;;;;;;;30.76;34.18;100058.63;6052292;28;20192;-67
2023/07/15 09:21:35;;;;;;;4.38;1.90;;;;;;;30.66;34.43;100052.19;6057911;28;20076;-68
2023/07/15 09:24:33;;;;;;;5.97;2.00;;;;;;;30.85;35.49;100038.50;6057170;28;20037;-68
2023/07/15 09:27:28;;;;;;;9.60;1.92;;;;;;;31.29;34.49;100029.91;6052087;28;20461;-68
2023/07/15 09:30:23;;;;;;;4.20;2.10;;;;;;;31.44;34.53;100046.13;6051816;28;20065;-68
2023/07/15 09:33:29;;;;;;;3.60;1.50;;;;;;;31.83;34.41;100053.16;6051673;28;20038;-68
2023/07/15 09:36:32;;;;;;;5.57;1.80;;;;;;;31.66;32.82;100038.06;6051757;28;20037;-68
2023/07/15 09:39:27;;;;;;;3.30;1.60;;;;;;;31.45;32.85;100064.16;6052035;28;20053;-68
2023/07/15 09:42:22;;;;;;;4.27;1.60;;;;;;;31.12;33.99;100059.75;6056429;28;20033;-68
2023/07/15 09:45:35;;;;;;;3.80;1.58;;;;;;;31.86;33.43;100063.50;6066695;28;20302;-68
2023/07/15 09:48:30;;;;;;;9.32;1.90;;;;;;;32.20;33.39;100048.31;6073758;28;20024;-66
2023/07/15 09:51:26;;;;;;;7.88;2.35;;;;;;;32.45;32.39;100041.50;6064824;28;20039;-66
2023/07/15 09:54:24;;;;;;;2.92;1.75;;;;;;;31.69;33.72;100037.44;6051016;28;20030;-67
2023/07/15 09:57:20;;;;;;;3.30;1.73;;;;;;;32.14;32.73;100048.72;6049970;28;20489;-67
2023/07/15 10:00:17;;;;;;;5.00;2.00;;;;;;;31.82;34.07;100049.59;6058345;28;20096;-68
2023/07/15 10:03:21;;;;;;;3.60;1.77;;;;;;;32.26;33.12;100054.53;6062056;28;20041;-67
2023/07/15 10:06:16;;;;;;;3.78;1.65;;;;;;;32.46;32.18;100062.34;6049515;28;20058;-67
2023/07/15 10:09:12;;;;;;;8.77;1.97;;;;;;;31.64;33.45;100075.94;6059539;28;20392;-67
2023/07/15 10:12:08;;;;;;;5.53;1.60;;;;;;;31.58;34.55;100068.91;6063233;28;20080;-67
2023/07/15 10:15:04;;;;;;;3.40;1.92;;;;;;;31.74;33.67;100086.72;6054818;28;20061;-67
2023/07/15 10:18:11;;;;;;;3.40;1.88;;;;;;;31.61;34.29;100090.25;6050675;28;20428;-67
2023/07/15 10:21:09;;;;;;;5.15;1.70;;;;;;;31.56;35.51;100087.59;6052193;28;20046;-68
2023/07/15 10:24:12;;;;;;;4.22;1.83;;;;;;;31.23;35.53;100077.69;6050063;28;20026;-67
2023/07/15 10:27:09;;;;;;;5.88;1.95;;;;;;;31.00;35.82;100116.94;6048576;28;20618;-68
2023/07/15 10:30:25;;;;;;;3.03;1.83;;;;;;;30.47;36.85;100114.31;6051362;28;20026;-68
2023/07/15 10:33:23;;;;;;;3.15;2.10;;;;;;;30.42;37.44;100117.09;6057292;28;20041;-68
2023/07/15 10:36:41;;;;;;;4.47;1.77;;;;;;;30.23;37.61;100118.94;6050632;28;20057;-67
2023/07/15 10:39:37;;;;;;;3.60;1.95;;;;;;;30.34;37.56;100125.91;6058612;28;20115;-67
2023/07/15 10:42:36;;;;;;;5.85;2.13;;;;;;;29.85;38.24;100112.47;6063020;28;20029;-67
2023/07/15 10:45:41;;;;;;;5.88;1.80;;;;;;;29.81;38.06;100116.06;6067141;28;20022;-68
2023/07/15 10:48:37;;;;;;;6.13;1.88;;;;;;;29.74;38.36;100130.03;6073435;28;20030;-68
2023/07/15 10:51:34;;;;;;;3.45;1.60;;;;;;;29.63;38.81;100146.78;6058809;28;20026;-67
2023/07/15 10:54:30;;;;;;;3.50;1.77;;;;;;;29.42;39.50;100170.72;6048591;28;20037;-68
2023/07/15 10:57:26;;;;;;;4.10;2.05;;;;;;;29.07;41.24;100182.66;6052206;28;20052;-68
2023/07/15 11:00:22;;;;;;;4.30;1.83;;;;;;;28.79;41.81;100202.41;6057576;28;20477;-68
2023/07/15 11:03:19;;;;;;;4.78;1.70;;;;;;;28.62;42.40;100191.00;6052094;28;20054;-67
2023/07/15 11:06:15;;;;;;;4.05;1.67;;;;;;;28.44;43.71;100199.75;6054201;28;20036;-67
2023/07/15 11:09:14;;;;;;;4.15;1.90;;;;;;;28.18;44.40;100226.25;6054161;28;20025;-67
2023/07/15 11:12:11;;;;;;;2.85;1.75;;;;;;;27.81;45.71;100231.94;6050732;28;20041;-68
2023/07/15 11:15:08;;;;;;;3.35;1.90;;;;;;;27.51;48.25;100250.94;6053609;28;20096;-67
2023/07/15 11:18:04;;;;;;;3.90;1.90;;;;;;;27.02;48.86;100239.56;6059813;28;20112;-67
2023/07/15 11:21:00;;;;;;;5.67;1.83;;;;;;;26.89;49.25;100254.47;6049165;28;20029;-67
2023/07/15 11:23:56;;;;;;;5.25;1.92;;;;;;;26.95;52.02;100275.22;6052772;28;20342;-68
2023/07/15 11:26:52;;;;;;;4.03;1.67;;;;;;;26.74;52.55;100257.09;6049281;28;20048;-67
2023/07/15 11:29:56;;;;;;;4.00;1.67;;;;;;;26.74;53.57;100262.53;6049915;28;20029;-67
2023/07/15 11:32:53;;;;;;;2.83;1.58;;;;;;;26.10;57.97;100250.88;6050500;28;20052;-68
2023/07/15 11:35:49;;;;;;;5.07;1.65;;;;;;;25.79;60.19;100246.25;6054467;28;20490;-67
2023/07/15 11:38:44;;;;;;;3.30;1.50;;;;;;;25.61;60.71;100222.97;6058764;28;20055;-68
2023/07/15 11:41:40;;;;;;;3.70;1.58;;;;;;;25.44;60.39;100223.03;6059977;28;20037;-67
2023/07/15 11:44:36;;;;;;;3.83;1.35;;;;;;;25.47;61.14;100213.59;6055607;28;20041;-68
2023/07/15 11:47:34;;;;;;;3.28;1.33;;;;;;;25.55;59.38;100215.84;6057007;28;20079;-67
2023/07/15 11:50:34;;;;;;;5.13;1.40;;;;;;;25.62;59.86;100232.78;6061718;28;20116;-68
2023/07/15 11:53:31;;;;;;;2.28;1.30;;;;;;;25.75;58.35;100235.06;6055070;28;20381;-68
2023/07/15 11:56:34;;;;;;;2.88;1.58;;;;;;;25.52;59.06;100210.13;6058183;28;20064;-68
2023/07/15 11:59:30;;;;;;;3.55;1.33;;;;;;;25.45;59.08;100218.44;6050615;28;20030;-67
2023/07/15 12:02:26;;;;;;;2.92;1.40;;;;;;;25.31;60.17;100214.47;6052000;28;20061;-67
2023/07/15 12:05:21;;;;;;;4.00;1.60;;;;;;;25.38;59.73;100226.75;6048243;28;20032;-68
2023/07/15 12:08:16;;;;;;;2.20;1.13;;;;;;;25.55;59.97;100237.56;6040634;28;20396;-68
2023/07/15 12:11:17;;;;;;;3.27;1.70;;;;;;;25.71;59.80;100247.50;6048556;28;20088;-67
2023/07/15 12:14:13;;;;;;;2.83;1.20;;;;;;;25.54;59.85;100241.38;6050890;28;20123;-68
2023/07/15 12:17:09;;;;;;;3.38;1.30;;;;;;;25.64;60.61;100268.63;6049264;28;20041;-67
2023/07/15 12:20:05;;;;;;;2.57;1.50;;;;;;;25.32;60.91;100245.97;6050239;28;20021;-68
2023/07/15 12:23:01;;;;;;;3.67;1.50;;;;;;;25.08;62.74;100248.13;6055967;28;20385;-67
2023/07/15 12:25:56;;;;;;;3.10;1.52;;;;;;;25.08;63.02;100247.31;6048579;28;20037;-67
2023/07/15 12:28:51;;;;;;;2.67;1.57;;;;;;;24.95;63.89;100224.06;6047429;28;20030;-67
2023/07/15 12:31:47;;;;;;;3.90;1.97;;;;;;;24.90;64.16;100220.47;6045895;28;20373;-68
2023/07/15 12:34:42;;;;;;;2.70;1.50;;;;;;;24.89;64.69;100229.69;6048619;28;20284;-67
2023/07/15 12:37:38;;;;;;;3.93;1.60;;;;;;;24.90;64.85;100201.47;6045492;28;20023;-68
2023/07/15 12:40:34;;;;;;;5.30;1.50;;;;;;;24.70;67.88;100205.56;6046376;28;20288;-67
2023/07/15 12:43:29;;;;;;;5.15;1.90;;;;;;;24.51;70.63;100196.06;6049241;28;20030;-67
2023/07/15 12:46:25;;;;;;;4.18;2.00;;;;;;;24.37;73.20;100181.22;6051349;28;20763;-67
2023/07/15 12:49:20;;;;;;;3.43;1.60;;;;;;;24.07;72.00;100137.38;6050632;28;20109;-67
2023/07/15 12:52:15;;;;;;;3.65;1.73;;;;;;;24.25;75.17;100147.97;6051382;28;20051;-68
2023/07/15 12:55:11;;;;;;;3.95;1.77;;;;;;;24.12;72.21;100140.19;6047015;28;20029;-67
2023/07/15 12:58:06;;;;;;;2.87;1.73;;;;;;;24.39;71.30;100137.56;6048161;28;20039;-67
2023/07/15 13:01:01;;;;;;;3.67;1.67;;;;;;;24.56;70.23;100125.63;6048152;28;20060;-67
2023/07/15 13:03:57;;;;;;;3.30;1.50;;;;;;;24.80;70.08;100146.03;6047211;28;20052;-67
2023/07/15 13:06:52;;;;;;;4.80;1.77;;;;;;;24.91;68.80;100141.53;6049800;28;20030;-67
2023/07/15 13:09:47;;;;;;;3.60;1.57;;;;;;;25.23;67.26;100142.44;6050108;28;20049;-67
2023/07/15 13:12:43;;;;;;;2.95;1.83;;;;;;;25.68;64.68;100146.72;6050799;28;21673;-67
2023/07/15 13:15:42;;;;;;;4.70;1.30;;;;;;;26.02;62.71;100108.13;6057456;28;20034;-69
2023/07/15 13:18:37;;;;;;;2.90;1.60;;;;;;;26.23;63.29;100146.31;6050796;28;20363;-68
2023/07/15 13:21:33;;;;;;;3.33;1.40;;;;;;;26.27;62.41;100151.00;6049722;28;20045;-67
2023/07/15 13:24:28;;;;;;;2.97;1.77;;;;;;;25.92;63.98;100167.00;6055275;28;20036;-67
2023/07/15 13:27:24;;;;;;;2.92;1.75;;;;;;;25.75;64.76;100166.31;6049838;28;20034;-68
2023/07/15 13:30:19;;;;;;;5.33;1.60;;;;;;;24.99;68.53;100167.41;6056558;28;20025;-67
2023/07/15 13:33:14;;;;;;;3.17;1.90;;;;;;;24.43;72.18;100139.56;6063150;28;20036;-66
2023/07/15 13:36:10;;;;;;;3.73;2.03;;;;;;;24.10;74.97;100143.16;6051617;28;20038;-67
2023/07/15 13:39:05;;;;;;;6.80;2.50;;;;;;;24.02;78.93;100157.09;6053628;28;20022;-66
2023/07/15 13:42:02;;;;;;;3.67;2.00;;;;;;;23.64;78.75;100128.00;6058326;28;20026;-66
2023/07/15 13:44:57;;;;;;;3.55;2.13;;;;;;;23.70;80.77;100127.03;6051710;28;20076;-66